createdAt,value
2018-04-07T00:01:16.025Z,47.34
2018-04-07T00:03:44.417Z,47.42
2018-04-07T00:06:12.827Z,48.05
2018-04-07T00:08:41.996Z,47.84
2018-04-07T00:11:10.403Z,47.70
2018-04-07T00:13:38.801Z,47.54
2018-04-07T00:16:07.955Z,47.72
2018-04-07T00:18:36.400Z,47.78
2018-04-07T00:21:04.868Z,47.76
2018-04-07T00:23:34.040Z,48.57
2018-04-07T00:26:02.468Z,48.06
2018-04-07T00:28:30.919Z,48.16
2018-04-07T00:31:00.115Z,48.49
2018-04-07T00:33:29.274Z,48.68
2018-04-07T00:35:57.713Z,48.64
2018-04-07T00:38:26.940Z,48.89
2018-04-07T00:40:55.380Z,49.35
2018-04-07T00:43:23.825Z,49.04
2018-04-07T00:45:52.203Z,49.06
2018-04-07T00:48:20.636Z,48.90
2018-04-07T00:50:49.808Z,49.27
2018-04-07T00:53:18.238Z,48.90
2018-04-07T00:55:46.646Z,48.97
2018-04-07T00:58:15.038Z,49.19
2018-04-07T01:00:43.505Z,49.83
2018-04-07T01:03:11.931Z,49.70
2018-04-07T01:05:41.217Z,49.14
2018-04-07T01:08:09.626Z,49.54
2018-04-07T01:10:38.015Z,49.34
2018-04-07T01:13:06.411Z,49.22
2018-04-07T01:15:34.827Z,49.40
2018-04-07T01:18:03.223Z,49.53
2018-04-07T01:20:31.633Z,49.39
2018-04-07T01:23:00.813Z,49.29
2018-04-07T01:25:29.209Z,49.31
2018-04-07T01:27:58.371Z,49.55
2018-04-07T01:30:26.772Z,49.39
2018-04-07T01:32:55.191Z,49.44
2018-04-07T01:35:23.576Z,49.92
2018-04-07T01:37:51.997Z,49.70
2018-04-07T01:40:20.407Z,49.68
2018-04-07T01:42:50.302Z,49.86
2018-04-07T01:45:18.703Z,50.42
2018-04-07T01:47:47.168Z,51.30
2018-04-07T01:50:15.574Z,50.51
2018-04-07T01:52:44.942Z,50.49
2018-04-07T01:55:13.519Z,51.14
2018-04-07T01:57:41.951Z,50.64
2018-04-07T02:00:11.127Z,50.43
2018-04-07T02:02:39.619Z,50.53
2018-04-07T02:05:08.795Z,50.62
2018-04-07T02:07:37.191Z,50.68
2018-04-07T02:10:05.575Z,50.70
2018-04-07T02:12:34.088Z,50.95
2018-04-07T02:15:02.464Z,50.88
2018-04-07T02:17:30.854Z,51.72
2018-04-07T02:19:59.243Z,51.53
2018-04-07T02:22:27.643Z,51.59
2018-04-07T02:24:56.051Z,51.86
2018-04-07T02:27:24.452Z,51.66
2018-04-07T02:29:53.628Z,51.33
2018-04-07T02:32:22.066Z,51.83
2018-04-07T02:34:50.461Z,52.19
2018-04-07T02:37:18.886Z,52.22
2018-04-07T02:39:47.288Z,51.66
2018-04-07T02:42:16.436Z,51.75
2018-04-07T02:44:44.857Z,52.64
2018-04-07T02:47:13.252Z,52.42
2018-04-07T02:49:42.426Z,52.43
2018-04-07T02:52:10.802Z,52.45
2018-04-07T02:54:39.986Z,52.77
2018-04-07T02:57:08.395Z,52.95
2018-04-07T02:59:36.795Z,52.88
2018-04-07T03:02:05.212Z,52.84
2018-04-07T03:04:33.614Z,53.16
2018-04-07T03:07:02.038Z,53.88
2018-04-07T03:09:31.967Z,53.69
2018-04-07T03:12:00.378Z,54.00
2018-04-07T03:14:28.754Z,53.76
2018-04-07T03:16:57.271Z,54.73
2018-04-07T03:19:25.730Z,53.97
2018-04-07T03:21:54.118Z,54.04
2018-04-07T03:24:22.525Z,53.96
2018-04-07T03:26:50.940Z,53.64
2018-04-07T03:29:19.461Z,53.69
2018-04-07T03:31:47.860Z,53.49
2018-04-07T03:34:16.361Z,53.70
2018-04-07T03:36:44.743Z,54.21
2018-04-07T03:39:13.130Z,55.04
2018-04-07T03:41:42.277Z,54.97
2018-04-07T03:44:10.670Z,54.29
2018-04-07T03:46:39.231Z,54.91
2018-04-07T03:49:07.624Z,54.56
2018-04-07T03:51:35.999Z,54.65
2018-04-07T03:54:04.385Z,54.80
2018-04-07T03:56:32.784Z,55.04
2018-04-07T03:59:01.192Z,54.96
2018-04-07T04:01:30.359Z,55.54
2018-04-07T04:03:58.773Z,55.30
2018-04-07T04:06:27.409Z,55.21
2018-04-07T04:08:55.852Z,55.33
2018-04-07T04:11:25.224Z,55.54
2018-04-07T04:13:53.598Z,56.12
2018-04-07T04:16:22.099Z,55.86
2018-04-07T04:18:50.499Z,55.97
2018-04-07T04:21:18.874Z,55.70
2018-04-07T04:23:47.259Z,55.50
2018-04-07T04:26:15.643Z,55.47
2018-04-07T04:28:44.019Z,55.74
2018-04-07T04:31:12.512Z,55.92
2018-04-07T04:33:41.656Z,55.88
2018-04-07T04:36:10.037Z,56.27
2018-04-07T04:38:38.428Z,55.79
2018-04-07T04:41:06.808Z,56.34
2018-04-07T04:43:35.201Z,56.27
2018-04-07T04:46:03.635Z,56.25
2018-04-07T04:48:32.018Z,56.54
2018-04-07T04:51:00.441Z,56.46
2018-04-07T04:53:28.831Z,56.25
2018-04-07T04:55:57.231Z,56.43
2018-04-07T04:58:26.395Z,56.32
2018-04-07T05:00:54.758Z,56.53
2018-04-07T05:03:23.140Z,56.75
2018-04-07T05:05:51.535Z,56.94
2018-04-07T05:08:19.916Z,56.80
2018-04-07T05:10:48.301Z,56.98
2018-04-07T05:13:16.764Z,56.58
2018-04-07T05:15:45.168Z,56.70
2018-04-07T05:18:13.557Z,56.92
2018-04-07T05:20:41.950Z,56.97
2018-04-07T05:23:10.340Z,56.41
2018-04-07T05:25:38.740Z,56.14
2018-04-07T05:28:07.930Z,56.22
2018-04-07T05:30:37.151Z,56.60
2018-04-07T05:33:05.668Z,56.02
2018-04-07T05:35:34.082Z,56.01
2018-04-07T05:38:02.462Z,56.26
2018-04-07T05:40:31.008Z,55.91
2018-04-07T05:42:59.384Z,55.81
2018-04-07T05:45:27.807Z,55.72
2018-04-07T05:47:56.200Z,56.33
2018-04-07T05:50:25.519Z,53.96
2018-04-07T05:52:53.912Z,52.79
2018-04-07T05:55:22.537Z,51.68
2018-04-07T05:57:50.999Z,51.18
2018-04-07T06:00:19.652Z,50.04
2018-04-07T06:02:48.847Z,50.36
2018-04-07T06:05:18.896Z,50.37
2018-04-07T06:07:47.331Z,49.50
2018-04-07T06:10:16.024Z,49.88
2018-04-07T06:12:45.534Z,48.30
2018-04-07T06:15:13.963Z,47.65
2018-04-07T06:17:42.337Z,47.13
2018-04-07T06:20:10.741Z,46.02
2018-04-07T06:22:39.115Z,45.73
2018-04-07T06:25:07.532Z,46.03
2018-04-07T06:27:36.124Z,44.54
2018-04-07T06:30:05.333Z,43.57
2018-04-07T06:32:34.791Z,42.79
2018-04-07T06:35:04.023Z,43.30
2018-04-07T06:37:33.895Z,43.91
2018-04-07T06:40:02.291Z,43.77
2018-04-07T06:42:30.707Z,42.55
2018-04-07T06:45:02.847Z,42.26
2018-04-07T06:47:33.282Z,41.94
2018-04-07T06:50:01.935Z,40.88
2018-04-07T06:52:30.311Z,41.17
2018-04-07T06:54:58.747Z,41.30
2018-04-07T06:57:27.292Z,40.11
2018-04-07T06:59:55.714Z,40.47
2018-04-07T07:02:24.099Z,40.63
2018-04-07T07:04:52.522Z,40.11
2018-04-07T07:07:20.902Z,40.76
2018-04-07T07:09:49.947Z,41.41
2018-04-07T07:12:18.397Z,40.48
2018-04-07T07:14:46.806Z,40.59
2018-04-07T07:17:16.000Z,39.59
2018-04-07T07:19:44.408Z,40.17
2018-04-07T07:22:13.672Z,39.75
2018-04-07T07:24:42.878Z,39.45
2018-04-07T07:27:11.273Z,40.08
2018-04-07T07:29:39.676Z,40.00
2018-04-07T07:32:08.849Z,38.25
2018-04-07T07:34:37.236Z,38.41
2018-04-07T07:37:05.654Z,38.61
2018-04-07T07:39:34.245Z,37.76
2018-04-07T07:42:02.849Z,38.29
2018-04-07T07:44:31.217Z,35.54
2018-04-07T07:46:59.619Z,36.82
2018-04-07T07:49:28.008Z,36.04
2018-04-07T07:51:56.400Z,36.55
2018-04-07T07:54:24.774Z,35.30
2018-04-07T07:56:53.161Z,36.50
2018-04-07T07:59:21.562Z,36.38
2018-04-07T08:01:50.724Z,35.14
2018-04-07T08:04:19.127Z,35.50
2018-04-07T08:06:47.506Z,34.82
2018-04-07T08:09:15.903Z,35.74
2018-04-07T08:11:45.079Z,34.08
2018-04-07T08:14:13.471Z,33.29
2018-04-07T08:16:42.635Z,33.20
2018-04-07T08:19:11.021Z,33.86
2018-04-07T08:21:39.410Z,32.53
2018-04-07T08:24:07.796Z,33.03
2018-04-07T08:26:36.242Z,32.63
2018-04-07T08:29:04.654Z,31.88
2018-04-07T08:31:33.065Z,32.90
2018-04-07T08:34:02.216Z,32.77
2018-04-07T08:36:30.624Z,32.13
2018-04-07T08:38:59.003Z,32.99
2018-04-07T08:41:27.403Z,33.44
2018-04-07T08:43:55.907Z,34.05
2018-04-07T08:46:24.276Z,33.85
2018-04-07T08:48:52.738Z,32.05
2018-04-07T08:51:21.122Z,33.81
2018-04-07T08:53:49.544Z,32.11
2018-04-07T08:56:18.676Z,33.30
2018-04-07T08:58:47.127Z,32.91
2018-04-07T09:01:15.611Z,31.97
2018-04-07T09:03:44.865Z,32.29
2018-04-07T09:06:13.266Z,33.73
2018-04-07T09:08:41.696Z,31.78
2018-04-07T09:11:10.123Z,30.55
2018-04-07T09:13:38.500Z,32.55
2018-04-07T09:16:06.908Z,31.26
2018-04-07T09:18:36.214Z,31.87
2018-04-07T09:21:05.388Z,31.63
2018-04-07T09:23:33.800Z,29.66
2018-04-07T09:26:02.991Z,28.54
2018-04-07T09:28:32.273Z,31.19
2018-04-07T09:31:06.050Z,30.34
2018-04-07T09:33:34.526Z,30.02
2018-04-07T09:36:02.947Z,30.39
2018-04-07T09:38:31.393Z,29.71
2018-04-07T09:40:59.773Z,31.72
2018-04-07T09:43:28.256Z,29.88
2018-04-07T09:45:56.747Z,29.91
2018-04-07T09:48:25.157Z,29.42
2018-04-07T09:50:53.707Z,30.33
2018-04-07T09:53:22.909Z,28.94
2018-04-07T09:55:51.359Z,30.17
2018-04-07T09:58:20.581Z,30.88
2018-04-07T10:00:49.015Z,31.14
2018-04-07T10:03:22.244Z,30.06
2018-04-07T10:05:51.885Z,29.75
2018-04-07T10:08:20.330Z,28.96
2018-04-07T10:10:49.659Z,27.82
2018-04-07T10:13:18.045Z,29.35
2018-04-07T10:15:46.457Z,28.70
2018-04-07T10:18:14.889Z,28.10
2018-04-07T10:20:44.055Z,28.77
2018-04-07T10:23:12.450Z,28.43
2018-04-07T10:25:40.846Z,28.10
2018-04-07T10:28:10.102Z,30.03
2018-04-07T10:30:39.354Z,28.53
2018-04-07T10:33:08.495Z,28.48
2018-04-07T10:35:37.086Z,28.52
2018-04-07T10:38:05.497Z,28.59
2018-04-07T10:40:33.893Z,29.81
2018-04-07T10:43:03.059Z,29.57
2018-04-07T10:45:31.496Z,29.73
2018-04-07T10:47:59.899Z,28.26
2018-04-07T10:50:28.420Z,27.70
2018-04-07T10:52:57.611Z,29.11
2018-04-07T10:55:26.028Z,29.18
2018-04-07T10:57:55.196Z,28.40
2018-04-07T11:00:23.586Z,28.26
2018-04-07T11:02:52.025Z,28.40
2018-04-07T11:05:20.448Z,27.39
2018-04-07T11:07:48.870Z,28.49
2018-04-07T11:10:18.039Z,27.52
2018-04-07T11:12:46.499Z,27.96
2018-04-07T11:15:14.869Z,27.74
2018-04-07T11:17:43.294Z,29.37
2018-04-07T11:20:11.669Z,30.16
2018-04-07T11:22:40.722Z,30.55
2018-04-07T11:25:09.868Z,26.93
2018-04-07T11:27:39.042Z,28.22
2018-04-07T11:30:07.438Z,29.80
2018-04-07T11:32:35.873Z,28.87
2018-04-07T11:35:04.263Z,29.26
2018-04-07T11:37:32.655Z,28.50
2018-04-07T11:40:01.130Z,28.72
2018-04-07T11:42:29.594Z,29.82
2018-04-07T11:44:58.010Z,29.69
2018-04-07T11:47:26.406Z,29.47
2018-04-07T11:49:54.847Z,28.20
2018-04-07T11:52:23.302Z,27.87
2018-04-07T11:54:51.679Z,28.78
2018-04-07T11:57:20.861Z,30.73
2018-04-07T11:59:49.259Z,30.56
2018-04-07T12:02:17.742Z,29.65
2018-04-07T12:04:46.099Z,29.65
2018-04-07T12:07:14.474Z,29.56
2018-04-07T12:09:42.902Z,29.36
2018-04-07T12:12:12.064Z,28.30
2018-04-07T12:14:40.465Z,27.97
2018-04-07T12:17:08.856Z,27.75
2018-04-07T12:19:37.262Z,27.95
2018-04-07T12:22:05.666Z,28.05
2018-04-07T12:24:34.051Z,27.29
2018-04-07T12:27:02.496Z,27.21
2018-04-07T12:29:31.726Z,27.10
2018-04-07T12:32:00.113Z,27.16
2018-04-07T12:34:28.706Z,27.73
2018-04-07T12:36:57.111Z,28.19
2018-04-07T12:39:25.580Z,28.70
2018-04-07T12:41:54.112Z,27.81
2018-04-07T12:44:23.360Z,26.98
2018-04-07T12:46:52.052Z,27.80
2018-04-07T12:49:20.447Z,26.54
2018-04-07T12:51:48.827Z,28.09
2018-04-07T12:54:17.233Z,27.98
2018-04-07T12:56:46.011Z,28.42
2018-04-07T12:59:14.464Z,27.72
2018-04-07T13:01:42.852Z,26.66
2018-04-07T13:04:11.254Z,27.55
2018-04-07T13:06:39.643Z,27.45
2018-04-07T13:09:08.103Z,27.41
2018-04-07T13:11:36.599Z,26.90
2018-04-07T13:14:05.025Z,26.37
2018-04-07T13:16:34.180Z,26.80
2018-04-07T13:19:02.632Z,27.23
2018-04-07T13:21:31.074Z,27.73
2018-04-07T13:23:59.514Z,27.07
2018-04-07T13:26:27.923Z,26.50
2018-04-07T13:28:56.340Z,25.79
2018-04-07T13:31:24.801Z,26.55
2018-04-07T13:33:54.155Z,26.11
2018-04-07T13:36:22.680Z,25.95
2018-04-07T13:38:51.070Z,25.48
2018-04-07T13:41:19.486Z,25.90
2018-04-07T13:43:48.759Z,25.78
2018-04-07T13:46:17.146Z,26.56
2018-04-07T13:48:45.562Z,25.88
2018-04-07T13:51:13.978Z,25.43
2018-04-07T13:53:42.372Z,25.66
2018-04-07T13:56:10.788Z,26.24
2018-04-07T13:58:39.215Z,26.33
2018-04-07T14:01:07.675Z,28.05
2018-04-07T14:03:36.075Z,27.20
2018-04-07T14:06:05.241Z,25.37
2018-04-07T14:08:33.672Z,26.06
2018-04-07T14:11:02.064Z,25.90
2018-04-07T14:13:30.492Z,27.26
2018-04-07T14:15:58.917Z,27.30
2018-04-07T14:18:27.381Z,26.08
2018-04-07T14:20:55.811Z,26.75
2018-04-07T14:23:24.971Z,26.30
2018-04-07T14:25:53.371Z,27.34
2018-04-07T14:28:21.774Z,25.96
2018-04-07T14:30:50.188Z,26.05
2018-04-07T14:33:19.373Z,26.25
2018-04-07T14:35:47.775Z,26.30
2018-04-07T14:38:16.204Z,26.22
2018-04-07T14:40:44.635Z,25.53
2018-04-07T14:43:13.109Z,25.75
2018-04-07T14:45:42.271Z,25.53
2018-04-07T14:48:10.694Z,25.70
2018-04-07T14:50:39.850Z,24.91
2018-04-07T14:53:08.279Z,25.85
2018-04-07T14:55:37.443Z,27.02
2018-04-07T14:58:05.827Z,26.57
2018-04-07T15:00:34.330Z,26.16
2018-04-07T15:03:03.470Z,26.00
2018-04-07T15:05:31.858Z,26.57
2018-04-07T15:08:00.248Z,25.30
2018-04-07T15:10:28.644Z,26.26
2018-04-07T15:12:57.070Z,26.24
2018-04-07T15:15:26.268Z,26.14
2018-04-07T15:17:55.448Z,25.47
2018-04-07T15:20:23.839Z,25.04
2018-04-07T15:22:53.011Z,25.02
2018-04-07T15:25:21.464Z,26.00
2018-04-07T15:27:49.878Z,25.43
2018-04-07T15:30:19.217Z,25.92
2018-04-07T15:32:47.600Z,27.01
2018-04-07T15:35:15.990Z,25.14
2018-04-07T15:37:45.147Z,26.52
2018-04-07T15:40:13.531Z,26.70
2018-04-07T15:42:41.900Z,26.26
2018-04-07T15:45:10.270Z,25.68
2018-04-07T15:50:14.015Z,25.47
2018-04-07T15:52:42.448Z,26.39
2018-04-07T15:55:11.608Z,26.96
2018-04-07T15:57:39.992Z,25.61
2018-04-07T16:00:08.358Z,26.49
2018-04-07T16:02:36.795Z,27.03
2018-04-07T16:05:05.208Z,25.28
2018-04-07T16:07:33.676Z,25.30
2018-04-07T16:10:02.100Z,26.33
2018-04-07T16:12:30.482Z,25.96
2018-04-07T16:14:58.920Z,26.30
2018-04-07T16:17:27.417Z,25.88
2018-04-07T16:19:55.812Z,26.42
2018-04-07T16:22:24.245Z,27.71
2018-04-07T16:24:52.628Z,28.43
2018-04-07T16:27:21.962Z,28.87
2018-04-07T16:29:50.363Z,28.35
2018-04-07T16:32:18.764Z,28.43
2018-04-07T16:34:47.175Z,29.72
2018-04-07T16:37:15.831Z,29.46
2018-04-07T16:39:44.235Z,29.42
2018-04-07T16:42:12.633Z,29.69
2018-04-07T16:44:41.819Z,30.36
2018-04-07T16:47:10.214Z,30.20
2018-04-07T16:49:38.605Z,30.38
2018-04-07T16:52:07.770Z,29.56
2018-04-07T16:54:36.267Z,29.45
2018-04-07T16:57:04.701Z,30.77
2018-04-07T16:59:33.088Z,29.83
2018-04-07T17:02:01.476Z,30.56
2018-04-07T17:04:29.862Z,31.42
2018-04-07T17:06:58.274Z,31.23
2018-04-07T17:09:26.703Z,31.49
2018-04-07T17:11:55.131Z,31.93
2018-04-07T17:14:23.541Z,32.52
2018-04-07T17:16:52.707Z,32.28
2018-04-07T17:19:21.101Z,33.17
2018-04-07T17:21:49.642Z,33.55
2018-04-07T17:24:18.095Z,32.82
2018-04-07T17:26:47.244Z,33.47
2018-04-07T17:29:15.639Z,33.73
2018-04-07T17:31:44.017Z,35.44
2018-04-07T17:34:12.446Z,34.49
2018-04-07T17:36:41.603Z,34.82
2018-04-07T17:39:09.984Z,34.79
2018-04-07T17:41:38.375Z,34.60
2018-04-07T17:44:07.585Z,34.95
2018-04-07T17:46:35.964Z,35.70
2018-04-07T17:49:06.239Z,35.55
2018-04-07T17:51:32.871Z,35.99
2018-04-07T17:54:01.258Z,36.27
2018-04-07T17:56:29.776Z,36.25
2018-04-07T17:58:58.158Z,36.46
2018-04-07T18:01:27.608Z,36.09
2018-04-07T18:03:55.999Z,36.83
2018-04-07T18:06:24.403Z,37.60
2018-04-07T18:08:52.862Z,37.21
2018-04-07T18:11:21.259Z,38.59
2018-04-07T18:13:49.705Z,37.87
2018-04-07T18:16:18.104Z,39.10
2018-04-07T18:18:46.559Z,38.55
2018-04-07T18:21:15.012Z,39.09
2018-04-07T18:23:44.205Z,39.22
2018-04-07T18:26:12.656Z,39.31
2018-04-07T18:28:41.076Z,39.74
2018-04-07T18:31:09.543Z,39.60
2018-04-07T18:33:37.919Z,39.82
2018-04-07T18:36:06.342Z,40.31
2018-04-07T18:38:35.518Z,39.29
2018-04-07T18:41:03.958Z,40.29
2018-04-07T18:43:34.251Z,40.60
2018-04-07T18:46:03.411Z,40.34
2018-04-07T18:48:31.954Z,40.94
2018-04-07T18:51:00.334Z,41.66
2018-04-07T18:53:28.753Z,42.81
2018-04-07T18:55:57.197Z,43.44
2018-04-07T18:58:25.590Z,42.83
2018-04-07T19:00:53.979Z,43.33
2018-04-07T19:03:22.495Z,44.22
2018-04-07T19:05:50.892Z,44.99
2018-04-07T19:08:20.062Z,44.38
2018-04-07T19:10:48.446Z,43.59
2018-04-07T19:13:16.841Z,42.69
2018-04-07T19:15:46.008Z,43.17
2018-04-07T19:18:14.422Z,43.44
2018-04-07T19:20:42.807Z,42.89
2018-04-07T19:23:11.216Z,43.30
2018-04-07T19:25:40.382Z,43.90
2018-04-07T19:28:08.784Z,45.18
2018-04-07T19:30:37.185Z,45.35
2018-04-07T19:33:06.337Z,45.60
2018-04-07T19:35:34.736Z,45.40
2018-04-07T19:38:03.893Z,47.69
2018-04-07T19:40:32.289Z,47.92
2018-04-07T19:43:00.679Z,47.85
2018-04-07T19:45:30.343Z,48.07
2018-04-07T19:47:58.734Z,48.09
2018-04-07T19:50:27.142Z,48.63
2018-04-07T19:52:55.546Z,49.38
2018-04-07T19:55:23.924Z,49.50
2018-04-07T19:57:52.932Z,49.21
2018-04-07T20:00:21.560Z,49.42
2018-04-07T20:02:50.036Z,50.75
2018-04-07T20:05:18.434Z,51.02
2018-04-07T20:07:46.837Z,51.32
2018-04-07T20:10:15.259Z,50.80
2018-04-07T20:12:45.034Z,50.36
2018-04-07T20:15:13.493Z,49.35
2018-04-07T20:17:41.890Z,48.52
2018-04-07T20:20:10.334Z,49.65
2018-04-07T20:22:38.725Z,49.04
2018-04-07T20:25:07.176Z,48.87
2018-04-07T20:27:36.333Z,48.51
2018-04-07T20:30:04.835Z,48.09
2018-04-07T20:32:33.248Z,48.41
2018-04-07T20:35:02.386Z,48.18
2018-04-07T20:37:30.788Z,48.20
2018-04-07T20:40:00.018Z,47.54
2018-04-07T20:42:28.427Z,47.40
2018-04-07T20:44:56.817Z,47.98
2018-04-07T20:47:25.262Z,48.45
2018-04-07T20:49:54.465Z,48.86
2018-04-07T20:52:23.674Z,48.88
2018-04-07T20:54:52.981Z,49.63
2018-04-07T20:57:22.189Z,51.29
2018-04-07T20:59:50.580Z,50.13
2018-04-07T21:02:19.029Z,50.29
2018-04-07T21:04:48.334Z,49.41
2018-04-07T21:07:17.543Z,49.70
2018-04-07T21:09:46.734Z,50.00
2018-04-07T21:12:16.053Z,50.21
2018-04-07T21:14:45.431Z,50.40
2018-04-07T21:17:13.867Z,49.86
2018-04-07T21:19:42.275Z,50.12
2018-04-07T21:22:10.725Z,50.31
2018-04-07T21:24:39.126Z,50.20
2018-04-07T21:27:07.556Z,50.04
2018-04-07T21:29:36.715Z,50.40
2018-04-07T21:32:05.143Z,49.96
2018-04-07T21:34:34.308Z,50.16
2018-04-07T21:37:02.786Z,50.36
2018-04-07T21:39:31.190Z,50.75
2018-04-07T21:42:00.346Z,51.49
2018-04-07T21:44:28.752Z,51.75
2018-04-07T21:46:58.044Z,52.46
2018-04-07T21:49:26.440Z,52.61
2018-04-07T21:51:55.639Z,53.00
2018-04-07T21:54:24.039Z,52.42
2018-04-07T21:56:53.217Z,52.95
2018-04-07T21:59:21.631Z,53.32
2018-04-07T22:01:50.818Z,53.24
2018-04-07T22:04:19.972Z,54.42
2018-04-07T22:06:48.375Z,53.41
2018-04-07T22:09:16.782Z,53.30
2018-04-07T22:11:45.196Z,53.03
2018-04-07T22:14:13.645Z,53.32
2018-04-07T22:16:42.842Z,53.21
2018-04-07T22:19:11.219Z,52.82
2018-04-07T22:21:39.688Z,53.22
2018-04-07T22:24:08.103Z,53.45
2018-04-07T22:26:36.522Z,53.32
2018-04-07T22:29:04.944Z,53.97
2018-04-07T22:31:34.839Z,54.28
2018-04-07T22:34:03.330Z,54.76
2018-04-07T22:36:32.196Z,54.63
2018-04-07T22:39:00.579Z,52.77
2018-04-07T22:41:29.022Z,52.82
2018-04-07T22:43:58.257Z,52.27
2018-04-07T22:46:26.639Z,52.15
2018-04-07T22:48:55.104Z,51.62
2018-04-07T22:51:23.608Z,51.29
2018-04-07T22:53:52.083Z,51.15
2018-04-07T22:56:20.484Z,50.63
2018-04-07T22:58:48.870Z,50.40
2018-04-07T23:01:17.280Z,50.13
2018-04-07T23:03:45.824Z,50.41
2018-04-07T23:06:14.245Z,50.41
2018-04-07T23:08:42.690Z,50.49
2018-04-07T23:11:11.100Z,50.46
2018-04-07T23:13:39.486Z,50.35
2018-04-07T23:16:08.619Z,50.99
2018-04-07T23:18:36.997Z,51.88
2018-04-07T23:21:05.380Z,52.58
2018-04-07T23:23:33.774Z,52.01
2018-04-07T23:26:02.235Z,52.01
2018-04-07T23:28:30.656Z,51.51
2018-04-07T23:31:00.014Z,51.58
2018-04-07T23:33:29.170Z,51.84
2018-04-07T23:35:57.550Z,51.80
2018-04-07T23:38:25.927Z,51.84
2018-04-07T23:40:54.323Z,52.00
2018-04-07T23:43:22.742Z,52.66
2018-04-07T23:45:51.915Z,53.83
2018-04-07T23:48:20.330Z,53.51
2018-04-07T23:50:49.062Z,53.81
2018-04-07T23:53:17.487Z,53.80
2018-04-07T23:55:45.899Z,52.96
2018-04-07T23:58:14.285Z,53.38
